createdAt,value
2017-08-29T00:02:24.082Z,20.70
2017-08-29T00:04:52.431Z,20.70
2017-08-29T00:07:22.222Z,20.70
2017-08-29T00:09:50.508Z,20.70
2017-08-29T00:12:18.839Z,20.60
2017-08-29T00:17:17.610Z,20.60
2017-08-29T00:19:46.343Z,20.60
2017-08-29T00:27:14.868Z,20.60
2017-08-29T00:29:43.163Z,20.60
2017-08-29T00:32:12.976Z,20.70
2017-08-29T00:34:41.336Z,20.70
2017-08-29T00:37:09.657Z,20.70
2017-08-29T00:39:39.106Z,20.70
2017-08-29T00:42:07.480Z,20.80
2017-08-29T00:44:35.763Z,20.80
2017-08-29T00:47:04.461Z,20.90
2017-08-29T00:49:34.298Z,20.80
2017-08-29T00:52:02.591Z,20.90
2017-08-29T00:54:30.888Z,21.00
2017-08-29T00:56:59.991Z,21.00
2017-08-29T00:59:28.304Z,21.10
2017-08-29T01:01:58.103Z,21.10
2017-08-29T01:04:26.442Z,21.20
2017-08-29T01:06:54.733Z,21.30
2017-08-29T01:09:23.018Z,21.30
2017-08-29T01:11:52.875Z,21.40
2017-08-29T01:14:21.165Z,21.50
2017-08-29T01:16:50.959Z,21.50
2017-08-29T01:19:19.298Z,21.50
2017-08-29T01:21:47.592Z,21.60
2017-08-29T01:24:15.875Z,21.60
2017-08-29T01:26:44.253Z,21.70
2017-08-29T01:29:12.568Z,21.70
2017-08-29T01:31:41.632Z,21.80
2017-08-29T01:34:10.372Z,21.80
2017-08-29T01:36:38.683Z,21.90
2017-08-29T01:41:37.308Z,21.90
2017-08-29T01:44:05.643Z,22.00
2017-08-29T01:46:34.327Z,22.00
2017-08-29T01:49:02.690Z,22.00
2017-08-29T01:51:31.738Z,22.00
2017-08-29T01:54:00.424Z,22.00
2017-08-29T01:56:28.780Z,22.10
2017-08-29T01:58:58.579Z,22.10
2017-08-29T02:01:26.889Z,22.10
2017-08-29T02:03:55.230Z,22.10
2017-08-29T02:06:23.523Z,22.10
2017-08-29T02:08:51.810Z,22.00
2017-08-29T02:11:20.139Z,22.00
2017-08-29T02:13:49.943Z,22.00
2017-08-29T02:16:18.238Z,22.00
2017-08-29T02:18:46.566Z,22.00
2017-08-29T02:21:15.671Z,22.00
2017-08-29T02:23:43.963Z,22.00
2017-08-29T02:28:42.232Z,21.90
2017-08-29T02:31:10.534Z,21.90
2017-08-29T02:33:38.888Z,21.80
2017-08-29T02:36:07.189Z,21.80
2017-08-29T02:38:36.619Z,21.70
2017-08-29T02:41:04.976Z,21.70
2017-08-29T02:43:33.262Z,21.70
2017-08-29T02:46:01.583Z,21.60
2017-08-29T02:48:31.082Z,21.60
2017-08-29T02:51:01.395Z,21.60
2017-08-29T02:56:00.036Z,21.50
2017-08-29T02:58:28.340Z,21.50
2017-08-29T03:00:56.656Z,21.50
2017-08-29T03:05:54.899Z,21.50
2017-08-29T03:08:23.994Z,21.50
2017-08-29T03:10:52.330Z,21.50
2017-08-29T03:13:22.123Z,21.40
2017-08-29T03:15:50.444Z,21.40
2017-08-29T03:18:19.544Z,21.40
2017-08-29T03:20:48.591Z,21.40
2017-08-29T03:23:16.912Z,21.40
2017-08-29T03:28:15.537Z,21.40
2017-08-29T03:30:43.867Z,21.40
2017-08-29T03:33:13.346Z,21.30
2017-08-29T03:35:42.412Z,21.30
2017-08-29T03:38:12.247Z,21.30
2017-08-29T03:40:42.100Z,21.30
2017-08-29T03:48:09.561Z,21.30
2017-08-29T03:50:37.870Z,21.30
2017-08-29T03:53:06.192Z,21.30
2017-08-29T03:55:34.510Z,21.30
2017-08-29T03:58:03.574Z,21.30
2017-08-29T04:00:32.291Z,21.20
2017-08-29T04:03:00.619Z,21.20
2017-08-29T04:05:28.922Z,21.20
2017-08-29T04:07:57.255Z,21.20
2017-08-29T04:10:25.591Z,21.20
2017-08-29T04:12:55.015Z,21.10
2017-08-29T04:15:23.343Z,21.20
2017-08-29T04:17:51.676Z,21.10
2017-08-29T04:20:19.967Z,21.10
2017-08-29T04:22:49.434Z,21.10
2017-08-29T04:25:18.906Z,21.10
2017-08-29T04:27:47.587Z,21.10
2017-08-29T04:30:15.929Z,21.10
2017-08-29T04:32:45.022Z,21.10
2017-08-29T04:35:13.715Z,21.10
2017-08-29T04:37:42.047Z,21.10
2017-08-29T04:40:10.403Z,21.10
2017-08-29T04:42:38.725Z,21.10
2017-08-29T04:45:07.050Z,21.10
2017-08-29T04:47:36.509Z,21.10
2017-08-29T04:50:04.807Z,21.10
2017-08-29T04:52:33.147Z,21.10
2017-08-29T04:55:01.467Z,21.20
2017-08-29T04:57:29.755Z,21.10
2017-08-29T04:59:58.387Z,21.20
2017-08-29T05:02:27.815Z,21.10
2017-08-29T05:04:56.107Z,21.10
2017-08-29T05:07:24.459Z,21.20
2017-08-29T05:09:53.517Z,21.20
2017-08-29T05:12:22.566Z,21.20
2017-08-29T05:14:50.910Z,21.20
2017-08-29T05:17:19.201Z,21.20
2017-08-29T05:19:47.894Z,21.10
2017-08-29T05:22:16.259Z,21.20
2017-08-29T05:24:44.572Z,21.20
2017-08-29T05:27:12.884Z,21.20
2017-08-29T05:29:41.251Z,21.20
2017-08-29T05:32:10.699Z,21.20
2017-08-29T05:34:39.017Z,21.20
2017-08-29T05:37:07.367Z,21.20
2017-08-29T05:39:35.671Z,21.20
2017-08-29T05:42:05.469Z,21.20
2017-08-29T05:47:04.839Z,21.20
2017-08-29T05:49:33.135Z,21.20
2017-08-29T05:52:01.863Z,21.30
2017-08-29T05:54:30.920Z,21.30
2017-08-29T05:56:59.615Z,21.30
2017-08-29T05:59:27.967Z,21.30
2017-08-29T06:04:26.163Z,21.40
2017-08-29T06:06:54.561Z,21.40
2017-08-29T06:09:22.867Z,21.40
2017-08-29T06:11:52.293Z,21.50
2017-08-29T06:14:22.573Z,21.50
2017-08-29T06:16:51.100Z,21.60
2017-08-29T06:19:19.394Z,21.70
2017-08-29T06:21:47.727Z,21.70
2017-08-29T06:24:17.536Z,21.80
2017-08-29T06:26:45.831Z,21.90
2017-08-29T06:31:44.106Z,22.00
2017-08-29T06:34:13.175Z,22.10
2017-08-29T06:36:41.554Z,22.10
2017-08-29T06:39:09.856Z,22.20
2017-08-29T06:41:38.231Z,22.20
2017-08-29T06:44:07.711Z,22.20
2017-08-29T06:46:36.019Z,22.30
2017-08-29T06:49:04.303Z,22.30
2017-08-29T06:51:32.631Z,22.40
2017-08-29T06:54:04.558Z,22.50
2017-08-29T06:56:32.852Z,22.60
2017-08-29T06:59:01.187Z,22.80
2017-08-29T07:01:30.988Z,22.90
2017-08-29T07:03:59.272Z,23.00
2017-08-29T07:06:27.619Z,23.10
2017-08-29T07:08:55.927Z,23.20
2017-08-29T07:11:24.624Z,23.30
2017-08-29T07:13:52.985Z,23.40
2017-08-29T07:16:21.280Z,23.50
2017-08-29T07:23:49.410Z,23.90
2017-08-29T07:26:17.715Z,24.00
2017-08-29T07:28:46.105Z,24.10
2017-08-29T07:31:15.918Z,24.30
2017-08-29T07:33:44.220Z,24.50
2017-08-29T07:36:12.570Z,24.60
2017-08-29T07:38:40.874Z,24.80
2017-08-29T07:43:38.784Z,25.10
2017-08-29T07:46:07.148Z,25.30
2017-08-29T07:48:35.473Z,25.40
2017-08-29T07:51:04.586Z,25.60
2017-08-29T07:56:02.803Z,25.80
2017-08-29T07:58:31.151Z,26.00
2017-08-29T08:01:00.971Z,26.20
2017-08-29T08:03:29.269Z,26.30
2017-08-29T08:05:57.607Z,26.50
2017-08-29T08:08:25.900Z,26.70
2017-08-29T08:10:54.191Z,26.90
2017-08-29T08:13:23.667Z,27.10
2017-08-29T08:15:51.956Z,27.20
2017-08-29T08:18:20.644Z,27.30
2017-08-29T08:20:48.995Z,27.40
2017-08-29T08:23:18.424Z,27.60
2017-08-29T08:25:47.116Z,27.80
2017-08-29T08:30:45.396Z,28.10
2017-08-29T08:33:13.706Z,28.10
2017-08-29T08:35:42.835Z,28.30
2017-08-29T08:38:11.151Z,28.30
2017-08-29T08:40:40.224Z,28.40
2017-08-29T08:43:08.959Z,28.40
2017-08-29T08:45:37.246Z,28.50
2017-08-29T08:48:05.539Z,28.60
2017-08-29T08:50:35.378Z,28.70
2017-08-29T08:55:33.574Z,29.00
2017-08-29T08:58:01.951Z,29.10
2017-08-29T09:00:30.638Z,29.20
2017-08-29T09:02:58.955Z,29.30
2017-08-29T09:05:28.439Z,29.40
2017-08-29T09:07:56.726Z,29.70
2017-08-29T09:10:25.014Z,29.90
2017-08-29T09:12:53.355Z,30.20
2017-08-29T09:15:22.411Z,30.40
2017-08-29T09:17:50.708Z,30.60
2017-08-29T09:20:19.048Z,30.80
2017-08-29T09:22:48.842Z,30.90
2017-08-29T09:25:17.131Z,31.10
2017-08-29T09:27:45.475Z,31.40
2017-08-29T09:30:15.271Z,31.50
2017-08-29T09:32:43.572Z,31.70
2017-08-29T09:35:13.443Z,31.90
2017-08-29T09:40:12.125Z,32.20
2017-08-29T09:42:40.497Z,32.50
2017-08-29T09:45:08.814Z,32.60
2017-08-29T09:47:38.267Z,32.80
2017-08-29T09:50:06.611Z,33.00
2017-08-29T09:52:34.899Z,33.10
2017-08-29T09:55:03.195Z,33.20
2017-08-29T09:57:32.303Z,33.40
2017-08-29T10:00:01.364Z,33.50
2017-08-29T10:02:30.414Z,33.40
2017-08-29T10:07:28.672Z,33.60
2017-08-29T10:12:26.945Z,33.90
2017-08-29T10:14:55.626Z,33.90
2017-08-29T10:17:23.915Z,34.10
2017-08-29T10:19:52.254Z,34.10
2017-08-29T10:22:21.675Z,34.10
2017-08-29T10:24:49.976Z,34.10
2017-08-29T10:27:18.320Z,34.20
2017-08-29T10:29:46.609Z,34.30
2017-08-29T10:32:16.399Z,34.40
2017-08-29T10:34:44.764Z,34.50
2017-08-29T10:39:42.996Z,34.60
2017-08-29T10:42:12.491Z,34.70
2017-08-29T10:44:41.571Z,34.70
2017-08-29T10:49:40.601Z,34.60
2017-08-29T10:52:08.913Z,34.60
2017-08-29T10:54:37.203Z,34.50
2017-08-29T10:59:35.063Z,34.20
2017-08-29T11:02:04.127Z,34.10
2017-08-29T11:04:33.599Z,34.20
2017-08-29T11:07:01.899Z,34.30
2017-08-29T11:09:30.186Z,34.30
2017-08-29T11:11:58.540Z,34.30
2017-08-29T11:14:28.343Z,34.50
2017-08-29T11:16:56.629Z,34.60
2017-08-29T11:19:24.987Z,34.80
2017-08-29T11:21:54.040Z,34.90
2017-08-29T11:24:22.331Z,34.80
2017-08-29T11:26:50.712Z,34.80
2017-08-29T11:29:20.562Z,34.80
2017-08-29T11:31:48.838Z,34.80
2017-08-29T11:36:47.076Z,35.00
2017-08-29T11:39:15.747Z,35.10
2017-08-29T11:41:44.871Z,35.10
2017-08-29T11:44:13.149Z,35.10
2017-08-29T11:46:42.191Z,35.10
2017-08-29T11:49:11.687Z,35.10
2017-08-29T11:51:39.986Z,35.20
2017-08-29T11:54:08.307Z,35.50
2017-08-29T11:56:36.648Z,35.60
2017-08-29T11:59:06.424Z,35.60
2017-08-29T12:01:34.710Z,35.50
2017-08-29T12:04:03.055Z,35.60
2017-08-29T12:06:32.107Z,35.70
2017-08-29T12:09:00.383Z,35.70
2017-08-29T12:11:28.739Z,35.60
2017-08-29T12:13:57.024Z,35.60
2017-08-29T12:16:26.452Z,35.50
2017-08-29T12:18:54.786Z,35.30
2017-08-29T12:21:23.059Z,35.30
2017-08-29T12:23:51.341Z,35.30
2017-08-29T12:26:19.679Z,35.30
2017-08-29T12:28:47.946Z,35.30
2017-08-29T12:31:16.228Z,35.40
2017-08-29T12:33:44.571Z,35.20
2017-08-29T12:36:14.016Z,35.10
2017-08-29T12:38:42.308Z,35.20
2017-08-29T12:41:11.800Z,35.20
2017-08-29T12:43:41.622Z,35.10
2017-08-29T12:46:09.928Z,35.10
2017-08-29T12:51:08.180Z,35.10
2017-08-29T12:56:06.396Z,35.10
2017-08-29T12:58:34.688Z,35.10
2017-08-29T13:03:39.104Z,35.20
2017-08-29T13:06:07.388Z,35.20
2017-08-29T13:08:37.176Z,35.20
2017-08-29T13:11:05.508Z,35.20
2017-08-29T13:13:33.783Z,35.10
2017-08-29T13:16:02.059Z,35.00
2017-08-29T13:18:31.938Z,35.00
2017-08-29T13:23:30.502Z,34.90
2017-08-29T13:25:59.599Z,34.90
2017-08-29T13:28:27.892Z,34.80
2017-08-29T13:30:56.932Z,34.70
2017-08-29T13:33:26.041Z,34.70
2017-08-29T13:38:24.470Z,34.40
2017-08-29T13:40:52.799Z,34.40
2017-08-29T13:43:21.083Z,34.20
2017-08-29T13:45:49.355Z,34.10
2017-08-29T13:48:18.851Z,33.90
2017-08-29T13:53:17.460Z,33.60
2017-08-29T13:55:45.818Z,33.40
2017-08-29T13:58:14.109Z,33.30
2017-08-29T14:05:42.671Z,33.00
2017-08-29T14:08:12.480Z,32.80
2017-08-29T14:10:41.592Z,32.70
2017-08-29T14:15:39.786Z,32.60
2017-08-29T14:20:38.046Z,32.40
2017-08-29T14:25:36.287Z,32.30
2017-08-29T14:28:04.583Z,32.30
2017-08-29T14:30:32.868Z,32.20
2017-08-29T14:33:01.198Z,32.20
2017-08-29T14:35:30.978Z,32.10
2017-08-29T14:37:59.280Z,32.10
2017-08-29T14:40:27.631Z,32.10
2017-08-29T14:42:55.915Z,32.10
2017-08-29T14:52:59.614Z,31.90
2017-08-29T14:55:27.947Z,31.90
2017-08-29T14:57:56.232Z,31.80
2017-08-29T15:00:24.515Z,31.70
2017-08-29T15:02:53.981Z,31.60
2017-08-29T15:07:52.155Z,31.70
2017-08-29T15:12:51.508Z,31.60
2017-08-29T15:15:20.931Z,31.40
2017-08-29T15:22:49.787Z,31.50
2017-08-29T15:25:18.883Z,31.60
2017-08-29T15:27:47.939Z,31.50
2017-08-29T15:30:16.214Z,31.50
2017-08-29T15:32:45.310Z,31.50
2017-08-29T15:35:13.600Z,31.40
2017-08-29T15:37:41.904Z,31.40
2017-08-29T15:40:10.247Z,31.40
2017-08-29T15:42:39.696Z,31.40
2017-08-29T15:45:07.996Z,31.40
2017-08-29T15:47:36.328Z,31.40
2017-08-29T15:50:04.607Z,31.40
2017-08-29T15:52:32.899Z,31.40
2017-08-29T15:55:01.234Z,31.40
2017-08-29T15:57:31.007Z,31.40
2017-08-29T15:59:59.290Z,31.40
2017-08-29T16:02:27.615Z,31.40
2017-08-29T16:04:56.660Z,31.40
2017-08-29T16:07:26.440Z,31.40
2017-08-29T16:09:55.960Z,31.30
2017-08-29T16:12:25.007Z,31.40
2017-08-29T16:19:53.499Z,31.30
2017-08-29T16:22:22.175Z,31.20
2017-08-29T16:24:50.500Z,31.10
2017-08-29T16:27:19.911Z,31.10
2017-08-29T16:29:48.187Z,31.10
2017-08-29T16:32:16.530Z,31.10
2017-08-29T16:34:46.319Z,31.00
2017-08-29T16:37:14.615Z,30.80
2017-08-29T16:39:42.967Z,30.90
2017-08-29T16:42:11.256Z,30.90
2017-08-29T16:44:39.553Z,30.90
2017-08-29T16:47:09.534Z,30.80
2017-08-29T16:49:37.811Z,30.80
2017-08-29T16:52:06.851Z,30.80
2017-08-29T16:54:35.186Z,30.80
2017-08-29T16:57:04.975Z,30.80
2017-08-29T16:59:33.652Z,30.70
2017-08-29T17:02:03.484Z,30.70
2017-08-29T17:04:31.762Z,30.60
2017-08-29T17:07:00.044Z,30.60
2017-08-29T17:09:28.405Z,30.50
2017-08-29T17:11:56.682Z,30.50
2017-08-29T17:14:26.112Z,30.50
2017-08-29T17:16:54.430Z,30.40
2017-08-29T17:19:22.715Z,30.40
2017-08-29T17:21:50.991Z,30.40
2017-08-29T17:24:19.322Z,30.40
2017-08-29T17:26:49.114Z,30.30
2017-08-29T17:29:17.387Z,30.30
2017-08-29T17:31:45.724Z,30.30
2017-08-29T17:34:14.783Z,30.20
2017-08-29T17:36:43.076Z,30.20
2017-08-29T17:39:12.924Z,30.10
2017-08-29T17:41:41.239Z,30.10
2017-08-29T17:44:09.519Z,30.00
2017-08-29T17:49:08.175Z,29.80
2017-08-29T17:51:37.596Z,29.70
2017-08-29T17:54:05.919Z,29.70
2017-08-29T17:56:34.200Z,29.60
2017-08-29T17:59:02.499Z,29.60
2017-08-29T18:01:30.819Z,29.60
2017-08-29T18:03:59.110Z,29.60
2017-08-29T18:06:28.899Z,29.60
2017-08-29T18:08:57.235Z,29.60
2017-08-29T18:13:55.432Z,29.40
2017-08-29T18:18:54.809Z,29.30
2017-08-29T18:21:23.090Z,29.20
2017-08-29T18:23:51.423Z,29.20
2017-08-29T18:26:21.206Z,29.20
2017-08-29T18:31:19.448Z,29.10
2017-08-29T18:33:47.715Z,29.10
2017-08-29T18:36:16.436Z,29.00
2017-08-29T18:38:44.770Z,29.00
2017-08-29T18:41:14.204Z,28.90
2017-08-29T18:43:42.519Z,28.90
2017-08-29T18:46:10.831Z,28.80
2017-08-29T18:48:39.115Z,28.80
2017-08-29T18:51:08.196Z,28.80
2017-08-29T18:53:36.503Z,28.70
2017-08-29T18:58:34.727Z,28.60
2017-08-29T19:01:03.816Z,28.60
2017-08-29T19:03:32.870Z,28.50
2017-08-29T19:08:31.301Z,28.40
2017-08-29T19:10:59.594Z,28.40
2017-08-29T19:13:27.888Z,28.30
2017-08-29T19:15:56.274Z,28.30
2017-08-29T19:18:25.737Z,28.30
2017-08-29T19:20:54.047Z,28.20
2017-08-29T19:23:22.391Z,28.20
2017-08-29T19:25:50.791Z,28.20
2017-08-29T19:28:20.582Z,28.20
2017-08-29T19:30:48.927Z,28.20
2017-08-29T19:33:17.216Z,28.20
2017-08-29T19:40:44.660Z,28.20
2017-08-29T19:43:12.969Z,28.20
2017-08-29T19:45:41.310Z,28.10
2017-08-29T19:48:10.732Z,28.10
2017-08-29T19:53:39.181Z,28.00
2017-08-29T19:56:07.459Z,27.90
2017-08-29T19:58:35.791Z,27.80
2017-08-29T20:01:04.463Z,27.80
2017-08-29T20:03:34.247Z,27.80
2017-08-29T20:08:32.079Z,27.80
2017-08-29T20:11:00.758Z,27.80
2017-08-29T20:15:59.014Z,27.80
2017-08-29T20:18:28.087Z,27.80
2017-08-29T20:23:26.341Z,27.80
2017-08-29T20:28:24.600Z,27.70
2017-08-29T20:30:52.879Z,27.60
2017-08-29T20:33:21.163Z,27.60
2017-08-29T20:35:49.891Z,27.50
2017-08-29T20:38:18.934Z,27.50
2017-08-29T20:40:47.218Z,27.40
2017-08-29T20:43:15.540Z,27.40
2017-08-29T20:45:43.838Z,27.40
2017-08-29T20:48:12.125Z,27.40
2017-08-29T20:50:40.459Z,27.30
2017-08-29T20:53:09.875Z,27.30
2017-08-29T20:55:38.551Z,27.30
2017-08-29T20:58:06.934Z,27.30
2017-08-29T21:00:35.979Z,27.30
2017-08-29T21:05:34.599Z,27.20
2017-08-29T21:08:04.392Z,27.20
2017-08-29T21:10:32.664Z,27.20
2017-08-29T21:15:31.270Z,27.10
2017-08-29T21:17:59.575Z,27.10
2017-08-29T21:20:28.002Z,27.10
2017-08-29T21:22:57.064Z,27.00
2017-08-29T21:25:25.367Z,27.00
2017-08-29T21:27:53.729Z,27.00
2017-08-29T21:30:22.018Z,26.90
2017-08-29T21:35:20.267Z,26.90
2017-08-29T21:37:48.560Z,26.90
2017-08-29T21:40:16.851Z,26.90
2017-08-29T21:42:45.955Z,26.80
2017-08-29T21:45:14.257Z,26.70
2017-08-29T21:47:42.558Z,26.70
2017-08-29T21:52:42.415Z,26.60
2017-08-29T21:55:10.711Z,26.60
2017-08-29T21:57:39.071Z,26.50
2017-08-29T22:00:07.352Z,26.50
2017-08-29T22:02:36.787Z,26.50
2017-08-29T22:05:05.140Z,26.40
2017-08-29T22:10:03.715Z,26.30
2017-08-29T22:12:32.076Z,26.30
2017-08-29T22:15:01.870Z,26.30
2017-08-29T22:17:30.554Z,26.20
2017-08-29T22:20:00.415Z,26.20
2017-08-29T22:22:28.755Z,26.10
2017-08-29T22:24:57.838Z,26.10
2017-08-29T22:27:26.206Z,26.10
2017-08-29T22:34:54.000Z,25.90
2017-08-29T22:37:23.063Z,25.90
2017-08-29T22:39:51.352Z,26.00
2017-08-29T22:42:20.831Z,25.90
2017-08-29T22:44:49.123Z,25.80
2017-08-29T22:47:17.411Z,25.80
2017-08-29T22:49:45.751Z,25.80
2017-08-29T22:52:15.547Z,25.80
2017-08-29T22:54:43.843Z,25.80
2017-08-29T23:02:12.399Z,25.70
2017-08-29T23:04:40.754Z,25.80
2017-08-29T23:07:09.030Z,25.80
2017-08-29T23:12:08.016Z,25.80
2017-08-29T23:14:36.303Z,25.80
2017-08-29T23:19:35.126Z,25.80
2017-08-29T23:22:04.556Z,25.80
2017-08-29T23:24:32.834Z,25.70
2017-08-29T23:27:02.687Z,25.70
2017-08-29T23:29:30.973Z,25.70
2017-08-29T23:31:59.271Z,25.70
2017-08-29T23:34:27.612Z,25.70
2017-08-29T23:39:25.859Z,25.70
2017-08-29T23:46:53.682Z,25.80
2017-08-29T23:49:22.786Z,25.80
2017-08-29T23:51:51.839Z,25.70
2017-08-29T23:54:20.123Z,25.70
2017-08-29T23:56:48.475Z,25.70
2017-08-29T23:59:16.763Z,25.60
